sensor_id;sensor_type;location;lat;lon;timestamp;P1;durP1;ratioP1;P2;durP2;ratioP2
10894;SDS011;5500;49.886;8.074;2022-09-04T00:00:46;5.37;;;4.83;;
10894;SDS011;5500;49.886;8.074;2022-09-04T00:03:23;4.47;;;4.07;;
10894;SDS011;5500;49.886;8.074;2022-09-04T00:05:57;4.53;;;4.00;;
10894;SDS011;5500;49.886;8.074;2022-09-04T00:08:34;4.27;;;3.90;;
10894;SDS011;5500;49.886;8.074;2022-09-04T00:11:07;4.60;;;4.20;;
10894;SDS011;5500;49.886;8.074;2022-09-04T00:13:41;10.00;;;4.37;;
10894;SDS011;5500;49.886;8.074;2022-09-04T00:16:11;4.93;;;4.17;;
10894;SDS011;5500;49.886;8.074;2022-09-04T00:18:44;4.70;;;4.30;;
10894;SDS011;5500;49.886;8.074;2022-09-04T00:21:14;6.73;;;4.90;;
10894;SDS011;5500;49.886;8.074;2022-09-04T00:23:47;5.37;;;4.97;;
10894;SDS011;5500;49.886;8.074;2022-09-04T00:26:19;7.40;;;6.73;;
10894;SDS011;5500;49.886;8.074;2022-09-04T00:28:57;11.73;;;9.70;;
10894;SDS011;5500;49.886;8.074;2022-09-04T00:31:29;10.70;;;9.67;;
10894;SDS011;5500;49.886;8.074;2022-09-04T00:34:03;13.90;;;11.53;;
10894;SDS011;5500;49.886;8.074;2022-09-04T00:36:40;13.80;;;12.33;;
10894;SDS011;5500;49.886;8.074;2022-09-04T00:39:17;12.97;;;11.57;;
10894;SDS011;5500;49.886;8.074;2022-09-04T00:41:50;14.63;;;11.80;;
10894;SDS011;5500;49.886;8.074;2022-09-04T00:44:29;12.13;;;10.87;;
10894;SDS011;5500;49.886;8.074;2022-09-04T00:47:07;11.30;;;9.97;;
10894;SDS011;5500;49.886;8.074;2022-09-04T00:49:55;14.43;;;9.77;;
10894;SDS011;5500;49.886;8.074;2022-09-04T00:52:37;19.73;;;9.70;;
10894;SDS011;5500;49.886;8.074;2022-09-04T00:55:17;22.80;;;10.23;;
10894;SDS011;5500;49.886;8.074;2022-09-04T00:57:59;9.80;;;8.80;;
10894;SDS011;5500;49.886;8.074;2022-09-04T01:00:35;9.47;;;8.57;;
10894;SDS011;5500;49.886;8.074;2022-09-04T01:03:09;8.33;;;7.53;;
10894;SDS011;5500;49.886;8.074;2022-09-04T01:05:59;8.83;;;7.90;;
10894;SDS011;5500;49.886;8.074;2022-09-04T01:08:36;8.50;;;7.60;;
10894;SDS011;5500;49.886;8.074;2022-09-04T01:11:12;10.17;;;9.07;;
10894;SDS011;5500;49.886;8.074;2022-09-04T01:13:41;9.97;;;8.97;;
10894;SDS011;5500;49.886;8.074;2022-09-04T01:16:13;10.23;;;9.10;;
10894;SDS011;5500;49.886;8.074;2022-09-04T01:18:48;11.10;;;10.00;;
10894;SDS011;5500;49.886;8.074;2022-09-04T01:21:33;9.97;;;8.97;;
10894;SDS011;5500;49.886;8.074;2022-09-04T01:24:28;9.97;;;9.07;;
10894;SDS011;5500;49.886;8.074;2022-09-04T01:27:07;10.40;;;9.40;;
10894;SDS011;5500;49.886;8.074;2022-09-04T01:29:38;10.40;;;9.40;;
10894;SDS011;5500;49.886;8.074;2022-09-04T01:32:14;11.10;;;9.47;;
10894;SDS011;5500;49.886;8.074;2022-09-04T01:34:48;11.40;;;9.37;;
10894;SDS011;5500;49.886;8.074;2022-09-04T01:37:24;10.83;;;9.70;;
10894;SDS011;5500;49.886;8.074;2022-09-04T01:39:58;10.90;;;9.80;;
10894;SDS011;5500;49.886;8.074;2022-09-04T01:42:35;10.80;;;9.70;;
10894;SDS011;5500;49.886;8.074;2022-09-04T01:45:07;11.33;;;10.23;;
10894;SDS011;5500;49.886;8.074;2022-09-04T01:47:37;9.80;;;8.63;;
10894;SDS011;5500;49.886;8.074;2022-09-04T01:50:09;10.90;;;9.17;;
10894;SDS011;5500;49.886;8.074;2022-09-04T01:52:40;13.47;;;9.47;;
10894;SDS011;5500;49.886;8.074;2022-09-04T01:55:15;11.90;;;9.00;;
10894;SDS011;5500;49.886;8.074;2022-09-04T01:57:54;14.37;;;10.10;;
10894;SDS011;5500;49.886;8.074;2022-09-04T02:00:27;15.37;;;10.63;;
10894;SDS011;5500;49.886;8.074;2022-09-04T02:03:00;12.23;;;9.90;;
10894;SDS011;5500;49.886;8.074;2022-09-04T02:05:30;11.97;;;9.83;;
10894;SDS011;5500;49.886;8.074;2022-09-04T02:08:10;17.50;;;11.03;;
10894;SDS011;5500;49.886;8.074;2022-09-04T02:10:47;12.27;;;10.30;;
10894;SDS011;5500;49.886;8.074;2022-09-04T02:13:20;13.13;;;11.23;;
10894;SDS011;5500;49.886;8.074;2022-09-04T02:15:54;15.37;;;10.40;;
10894;SDS011;5500;49.886;8.074;2022-09-04T02:18:28;11.80;;;10.10;;
10894;SDS011;5500;49.886;8.074;2022-09-04T02:21:04;11.27;;;9.10;;
10894;SDS011;5500;49.886;8.074;2022-09-04T02:23:36;12.77;;;9.20;;
10894;SDS011;5500;49.886;8.074;2022-09-04T02:26:09;11.30;;;9.37;;
10894;SDS011;5500;49.886;8.074;2022-09-04T02:28:45;10.10;;;9.10;;
10894;SDS011;5500;49.886;8.074;2022-09-04T02:31:18;10.43;;;9.33;;
10894;SDS011;5500;49.886;8.074;2022-09-04T02:33:56;11.27;;;9.60;;
10894;SDS011;5500;49.886;8.074;2022-09-04T02:36:28;10.57;;;9.43;;
10894;SDS011;5500;49.886;8.074;2022-09-04T02:39:01;12.07;;;9.03;;
10894;SDS011;5500;49.886;8.074;2022-09-04T02:41:34;10.57;;;9.37;;
10894;SDS011;5500;49.886;8.074;2022-09-04T02:44:12;10.10;;;8.67;;
10894;SDS011;5500;49.886;8.074;2022-09-04T02:46:48;9.77;;;8.27;;
10894;SDS011;5500;49.886;8.074;2022-09-04T02:49:26;11.13;;;8.83;;
10894;SDS011;5500;49.886;8.074;2022-09-04T02:52:00;11.17;;;8.00;;
10894;SDS011;5500;49.886;8.074;2022-09-04T02:54:42;9.47;;;8.47;;
10894;SDS011;5500;49.886;8.074;2022-09-04T02:57:22;9.50;;;8.50;;
10894;SDS011;5500;49.886;8.074;2022-09-04T02:59:59;10.37;;;8.63;;
10894;SDS011;5500;49.886;8.074;2022-09-04T03:02:33;9.97;;;8.80;;
10894;SDS011;5500;49.886;8.074;2022-09-04T03:05:06;9.97;;;8.77;;
10894;SDS011;5500;49.886;8.074;2022-09-04T03:07:41;10.70;;;9.60;;
10894;SDS011;5500;49.886;8.074;2022-09-04T03:10:13;10.40;;;9.13;;
10894;SDS011;5500;49.886;8.074;2022-09-04T03:12:44;13.70;;;10.47;;
10894;SDS011;5500;49.886;8.074;2022-09-04T03:15:17;11.10;;;9.47;;
10894;SDS011;5500;49.886;8.074;2022-09-04T03:17:50;11.73;;;9.90;;
10894;SDS011;5500;49.886;8.074;2022-09-04T03:20:25;12.00;;;10.20;;
10894;SDS011;5500;49.886;8.074;2022-09-04T03:22:59;13.70;;;11.00;;
10894;SDS011;5500;49.886;8.074;2022-09-04T03:25:35;12.83;;;10.50;;
10894;SDS011;5500;49.886;8.074;2022-09-04T03:28:11;16.00;;;11.30;;
10894;SDS011;5500;49.886;8.074;2022-09-04T03:30:47;12.87;;;11.03;;
10894;SDS011;5500;49.886;8.074;2022-09-04T03:33:16;16.07;;;11.03;;
10894;SDS011;5500;49.886;8.074;2022-09-04T03:35:49;12.60;;;10.53;;
10894;SDS011;5500;49.886;8.074;2022-09-04T03:38:22;12.67;;;9.93;;
10894;SDS011;5500;49.886;8.074;2022-09-04T03:40:56;11.97;;;10.03;;
10894;SDS011;5500;49.886;8.074;2022-09-04T03:43:35;12.50;;;10.17;;
10894;SDS011;5500;49.886;8.074;2022-09-04T03:46:24;26.07;;;10.87;;
10894;SDS011;5500;49.886;8.074;2022-09-04T03:49:03;13.00;;;10.77;;
10894;SDS011;5500;49.886;8.074;2022-09-04T03:51:37;11.47;;;10.27;;
10894;SDS011;5500;49.886;8.074;2022-09-04T03:54:14;13.93;;;10.87;;
10894;SDS011;5500;49.886;8.074;2022-09-04T03:56:59;13.77;;;12.03;;
10894;SDS011;5500;49.886;8.074;2022-09-04T03:59:39;13.03;;;10.10;;
10894;SDS011;5500;49.886;8.074;2022-09-04T04:02:17;16.00;;;11.27;;
10894;SDS011;5500;49.886;8.074;2022-09-04T04:07:41;37.10;;;11.73;;
10894;SDS011;5500;49.886;8.074;2022-09-04T04:10:17;14.63;;;11.83;;
10894;SDS011;5500;49.886;8.074;2022-09-04T04:12:55;14.63;;;11.73;;
10894;SDS011;5500;49.886;8.074;2022-09-04T04:15:45;14.80;;;12.07;;
10894;SDS011;5500;49.886;8.074;2022-09-04T04:18:40;18.27;;;12.30;;
10894;SDS011;5500;49.886;8.074;2022-09-04T04:21:21;13.67;;;11.40;;
10894;SDS011;5500;49.886;8.074;2022-09-04T04:24:03;14.40;;;11.50;;
10894;SDS011;5500;49.886;8.074;2022-09-04T04:26:44;16.80;;;12.10;;
10894;SDS011;5500;49.886;8.074;2022-09-04T04:29:34;12.83;;;11.00;;
10894;SDS011;5500;49.886;8.074;2022-09-04T04:32:20;14.57;;;10.23;;
10894;SDS011;5500;49.886;8.074;2022-09-04T04:34:59;15.20;;;11.57;;
10894;SDS011;5500;49.886;8.074;2022-09-04T04:37:39;14.00;;;11.30;;
10894;SDS011;5500;49.886;8.074;2022-09-04T04:40:19;16.93;;;12.07;;
10894;SDS011;5500;49.886;8.074;2022-09-04T04:42:53;17.17;;;13.20;;
10894;SDS011;5500;49.886;8.074;2022-09-04T04:45:27;15.93;;;11.90;;
10894;SDS011;5500;49.886;8.074;2022-09-04T04:48:27;15.83;;;12.00;;
10894;SDS011;5500;49.886;8.074;2022-09-04T04:51:05;15.70;;;11.73;;
10894;SDS011;5500;49.886;8.074;2022-09-04T04:53:41;17.17;;;11.67;;
10894;SDS011;5500;49.886;8.074;2022-09-04T04:56:13;19.13;;;11.13;;
10894;SDS011;5500;49.886;8.074;2022-09-04T04:58:54;19.83;;;11.37;;
10894;SDS011;5500;49.886;8.074;2022-09-04T05:01:28;15.63;;;10.90;;
10894;SDS011;5500;49.886;8.074;2022-09-04T05:04:05;16.87;;;11.97;;
10894;SDS011;5500;49.886;8.074;2022-09-04T05:06:40;17.43;;;11.73;;
10894;SDS011;5500;49.886;8.074;2022-09-04T05:09:13;17.23;;;11.47;;
10894;SDS011;5500;49.886;8.074;2022-09-04T05:11:47;16.60;;;10.83;;
10894;SDS011;5500;49.886;8.074;2022-09-04T05:14:23;19.43;;;13.30;;
10894;SDS011;5500;49.886;8.074;2022-09-04T05:16:56;20.37;;;13.30;;
10894;SDS011;5500;49.886;8.074;2022-09-04T05:19:31;19.93;;;12.70;;
10894;SDS011;5500;49.886;8.074;2022-09-04T05:22:07;17.83;;;12.27;;
10894;SDS011;5500;49.886;8.074;2022-09-04T05:24:42;15.40;;;10.80;;
10894;SDS011;5500;49.886;8.074;2022-09-04T05:27:33;14.50;;;10.23;;
10894;SDS011;5500;49.886;8.074;2022-09-04T05:30:09;16.63;;;11.00;;
10894;SDS011;5500;49.886;8.074;2022-09-04T05:32:42;15.70;;;10.13;;
10894;SDS011;5500;49.886;8.074;2022-09-04T05:35:19;14.73;;;9.87;;
10894;SDS011;5500;49.886;8.074;2022-09-04T05:38:03;16.67;;;10.37;;
10894;SDS011;5500;49.886;8.074;2022-09-04T05:40:37;15.63;;;10.63;;
10894;SDS011;5500;49.886;8.074;2022-09-04T05:43:18;14.13;;;9.90;;
10894;SDS011;5500;49.886;8.074;2022-09-04T05:45:55;14.33;;;10.13;;
10894;SDS011;5500;49.886;8.074;2022-09-04T05:48:29;16.20;;;10.57;;
10894;SDS011;5500;49.886;8.074;2022-09-04T05:51:06;16.47;;;11.17;;
10894;SDS011;5500;49.886;8.074;2022-09-04T05:54:00;16.37;;;11.10;;
10894;SDS011;5500;49.886;8.074;2022-09-04T05:56:42;16.17;;;11.37;;
10894;SDS011;5500;49.886;8.074;2022-09-04T06:02:20;19.83;;;11.93;;
10894;SDS011;5500;49.886;8.074;2022-09-04T06:05:14;18.50;;;12.73;;
10894;SDS011;5500;49.886;8.074;2022-09-04T06:07:51;18.70;;;12.23;;
10894;SDS011;5500;49.886;8.074;2022-09-04T06:10:24;19.13;;;11.90;;
10894;SDS011;5500;49.886;8.074;2022-09-04T06:13:08;19.47;;;11.57;;
10894;SDS011;5500;49.886;8.074;2022-09-04T06:15:56;20.57;;;11.67;;
10894;SDS011;5500;49.886;8.074;2022-09-04T06:18:37;18.67;;;12.30;;
10894;SDS011;5500;49.886;8.074;2022-09-04T06:21:16;19.10;;;12.37;;
10894;SDS011;5500;49.886;8.074;2022-09-04T06:24:15;20.33;;;13.50;;
10894;SDS011;5500;49.886;8.074;2022-09-04T06:30:01;21.20;;;13.50;;
10894;SDS011;5500;49.886;8.074;2022-09-04T06:32:34;15.60;;;12.30;;
10894;SDS011;5500;49.886;8.074;2022-09-04T06:35:38;18.43;;;12.80;;
10894;SDS011;5500;49.886;8.074;2022-09-04T06:38:17;15.50;;;12.57;;
10894;SDS011;5500;49.886;8.074;2022-09-04T06:40:56;17.33;;;12.30;;
10894;SDS011;5500;49.886;8.074;2022-09-04T06:43:33;17.80;;;13.73;;
10894;SDS011;5500;49.886;8.074;2022-09-04T06:46:06;18.37;;;13.77;;
10894;SDS011;5500;49.886;8.074;2022-09-04T06:48:45;16.57;;;13.07;;
10894;SDS011;5500;49.886;8.074;2022-09-04T06:51:21;15.87;;;12.33;;
10894;SDS011;5500;49.886;8.074;2022-09-04T06:53:59;15.57;;;12.40;;
10894;SDS011;5500;49.886;8.074;2022-09-04T06:56:38;15.37;;;12.13;;
10894;SDS011;5500;49.886;8.074;2022-09-04T06:59:19;14.43;;;11.33;;
10894;SDS011;5500;49.886;8.074;2022-09-04T07:01:59;15.10;;;11.37;;
10894;SDS011;5500;49.886;8.074;2022-09-04T07:04:37;15.20;;;10.73;;
10894;SDS011;5500;49.886;8.074;2022-09-04T07:07:13;14.37;;;10.97;;
10894;SDS011;5500;49.886;8.074;2022-09-04T07:09:47;13.57;;;10.73;;
10894;SDS011;5500;49.886;8.074;2022-09-04T07:15:23;11.07;;;9.60;;
10894;SDS011;5500;49.886;8.074;2022-09-04T07:18:02;10.83;;;9.73;;
10894;SDS011;5500;49.886;8.074;2022-09-04T07:20:36;10.83;;;9.60;;
10894;SDS011;5500;49.886;8.074;2022-09-04T07:23:14;12.00;;;9.97;;
10894;SDS011;5500;49.886;8.074;2022-09-04T07:25:48;11.00;;;9.57;;
10894;SDS011;5500;49.886;8.074;2022-09-04T07:28:29;11.67;;;9.73;;
10894;SDS011;5500;49.886;8.074;2022-09-04T07:31:03;13.07;;;11.00;;
10894;SDS011;5500;49.886;8.074;2022-09-04T07:33:33;13.67;;;10.87;;
10894;SDS011;5500;49.886;8.074;2022-09-04T07:36:06;12.63;;;10.23;;
10894;SDS011;5500;49.886;8.074;2022-09-04T07:38:37;12.73;;;10.10;;
10894;SDS011;5500;49.886;8.074;2022-09-04T07:41:17;12.73;;;9.60;;
10894;SDS011;5500;49.886;8.074;2022-09-04T07:43:49;13.67;;;10.03;;
10894;SDS011;5500;49.886;8.074;2022-09-04T07:46:24;12.30;;;10.37;;
10894;SDS011;5500;49.886;8.074;2022-09-04T07:49:00;12.30;;;10.43;;
10894;SDS011;5500;49.886;8.074;2022-09-04T07:51:35;12.10;;;10.43;;
10894;SDS011;5500;49.886;8.074;2022-09-04T07:54:14;12.57;;;10.80;;
10894;SDS011;5500;49.886;8.074;2022-09-04T07:56:59;14.40;;;11.90;;
10894;SDS011;5500;49.886;8.074;2022-09-04T07:59:47;13.57;;;10.80;;
10894;SDS011;5500;49.886;8.074;2022-09-04T08:02:32;14.33;;;11.23;;
10894;SDS011;5500;49.886;8.074;2022-09-04T08:05:18;14.33;;;11.23;;
10894;SDS011;5500;49.886;8.074;2022-09-04T08:07:55;13.83;;;11.27;;
10894;SDS011;5500;49.886;8.074;2022-09-04T08:10:36;14.50;;;11.43;;
10894;SDS011;5500;49.886;8.074;2022-09-04T08:13:08;14.10;;;11.50;;
10894;SDS011;5500;49.886;8.074;2022-09-04T08:15:42;13.13;;;11.60;;
10894;SDS011;5500;49.886;8.074;2022-09-04T08:18:18;11.77;;;10.10;;
10894;SDS011;5500;49.886;8.074;2022-09-04T08:20:59;12.07;;;10.20;;
10894;SDS011;5500;49.886;8.074;2022-09-04T08:23:39;13.93;;;10.43;;
10894;SDS011;5500;49.886;8.074;2022-09-04T08:26:15;12.70;;;10.83;;
10894;SDS011;5500;49.886;8.074;2022-09-04T08:28:50;12.30;;;10.90;;
10894;SDS011;5500;49.886;8.074;2022-09-04T08:31:28;11.27;;;9.77;;
10894;SDS011;5500;49.886;8.074;2022-09-04T08:34:06;10.53;;;9.13;;
10894;SDS011;5500;49.886;8.074;2022-09-04T08:36:50;9.87;;;8.83;;
10894;SDS011;5500;49.886;8.074;2022-09-04T08:39:26;10.13;;;8.97;;
10894;SDS011;5500;49.886;8.074;2022-09-04T08:51:22;10.23;;;9.23;;
10894;SDS011;5500;49.886;8.074;2022-09-04T08:57:08;9.93;;;8.50;;
10894;SDS011;5500;49.886;8.074;2022-09-04T08:59:56;9.43;;;8.63;;
10894;SDS011;5500;49.886;8.074;2022-09-04T09:08:33;10.10;;;9.20;;
10894;SDS011;5500;49.886;8.074;2022-09-04T09:11:14;10.27;;;9.23;;
10894;SDS011;5500;49.886;8.074;2022-09-04T09:16:56;11.23;;;10.13;;
10894;SDS011;5500;49.886;8.074;2022-09-04T09:19:49;12.10;;;10.90;;
10894;SDS011;5500;49.886;8.074;2022-09-04T09:22:27;12.57;;;11.30;;
10894;SDS011;5500;49.886;8.074;2022-09-04T09:25:17;12.23;;;10.57;;
10894;SDS011;5500;49.886;8.074;2022-09-04T09:28:05;12.17;;;10.90;;
10894;SDS011;5500;49.886;8.074;2022-09-04T09:30:58;12.40;;;11.13;;
10894;SDS011;5500;49.886;8.074;2022-09-04T09:34:12;12.37;;;11.07;;
10894;SDS011;5500;49.886;8.074;2022-09-04T09:37:09;16.83;;;11.83;;
10894;SDS011;5500;49.886;8.074;2022-09-04T09:40:21;12.60;;;10.63;;
10894;SDS011;5500;49.886;8.074;2022-09-04T09:43:05;11.97;;;10.77;;
10894;SDS011;5500;49.886;8.074;2022-09-04T09:45:55;11.03;;;9.97;;
10894;SDS011;5500;49.886;8.074;2022-09-04T09:49:24;10.47;;;9.47;;
10894;SDS011;5500;49.886;8.074;2022-09-04T09:52:06;11.70;;;10.53;;
10894;SDS011;5500;49.886;8.074;2022-09-04T09:54:54;10.73;;;9.60;;
10894;SDS011;5500;49.886;8.074;2022-09-04T09:57:45;10.80;;;9.70;;
10894;SDS011;5500;49.886;8.074;2022-09-04T10:00:27;10.77;;;9.67;;
10894;SDS011;5500;49.886;8.074;2022-09-04T10:03:08;10.10;;;9.10;;
10894;SDS011;5500;49.886;8.074;2022-09-04T10:06:00;9.70;;;8.70;;
10894;SDS011;5500;49.886;8.074;2022-09-04T10:12:17;10.03;;;9.00;;
10894;SDS011;5500;49.886;8.074;2022-09-04T10:15:16;9.77;;;8.77;;
10894;SDS011;5500;49.886;8.074;2022-09-04T10:24:10;9.37;;;8.40;;
10894;SDS011;5500;49.886;8.074;2022-09-04T10:30:02;9.63;;;8.73;;
10894;SDS011;5500;49.886;8.074;2022-09-04T10:38:24;9.43;;;8.53;;
10894;SDS011;5500;49.886;8.074;2022-09-04T10:41:30;12.40;;;7.93;;
10894;SDS011;5500;49.886;8.074;2022-09-04T10:44:11;8.87;;;8.07;;
10894;SDS011;5500;49.886;8.074;2022-09-04T10:47:04;8.90;;;8.10;;
10894;SDS011;5500;49.886;8.074;2022-09-04T10:49:53;7.27;;;6.57;;
10894;SDS011;5500;49.886;8.074;2022-09-04T10:52:49;7.17;;;6.57;;
10894;SDS011;5500;49.886;8.074;2022-09-04T10:55:30;7.33;;;6.63;;
10894;SDS011;5500;49.886;8.074;2022-09-04T11:04:11;6.67;;;6.00;;
10894;SDS011;5500;49.886;8.074;2022-09-04T11:06:57;6.03;;;5.53;;
10894;SDS011;5500;49.886;8.074;2022-09-04T11:09:40;7.47;;;6.03;;
10894;SDS011;5500;49.886;8.074;2022-09-04T11:12:20;5.97;;;5.47;;
10894;SDS011;5500;49.886;8.074;2022-09-04T11:18:08;5.17;;;4.77;;
10894;SDS011;5500;49.886;8.074;2022-09-04T11:20:54;6.27;;;5.20;;
10894;SDS011;5500;49.886;8.074;2022-09-04T11:23:48;5.70;;;5.20;;
10894;SDS011;5500;49.886;8.074;2022-09-04T11:29:36;5.33;;;4.83;;
10894;SDS011;5500;49.886;8.074;2022-09-04T11:32:11;6.77;;;6.07;;
10894;SDS011;5500;49.886;8.074;2022-09-04T11:37:53;4.67;;;4.27;;
10894;SDS011;5500;49.886;8.074;2022-09-04T11:43:34;4.93;;;4.50;;
10894;SDS011;5500;49.886;8.074;2022-09-04T11:46:31;4.50;;;4.10;;
10894;SDS011;5500;49.886;8.074;2022-09-04T11:49:16;5.13;;;3.80;;
10894;SDS011;5500;49.886;8.074;2022-09-04T11:52:07;3.20;;;2.90;;
10894;SDS011;5500;49.886;8.074;2022-09-04T11:54:45;3.90;;;3.60;;
10894;SDS011;5500;49.886;8.074;2022-09-04T11:57:34;4.00;;;3.03;;
10894;SDS011;5500;49.886;8.074;2022-09-04T12:00:11;4.30;;;3.90;;
10894;SDS011;5500;49.886;8.074;2022-09-04T12:02:47;3.87;;;3.47;;
10894;SDS011;5500;49.886;8.074;2022-09-04T12:05:26;4.33;;;3.60;;
10894;SDS011;5500;49.886;8.074;2022-09-04T12:08:10;4.37;;;3.17;;
10894;SDS011;5500;49.886;8.074;2022-09-04T12:10:52;3.05;;;2.75;;
10894;SDS011;5500;49.886;8.074;2022-09-04T12:16:33;3.28;;;2.17;;
10894;SDS011;5500;49.886;8.074;2022-09-04T12:22:30;3.70;;;2.78;;
10894;SDS011;5500;49.886;8.074;2022-09-04T12:25:25;2.92;;;2.60;;
10894;SDS011;5500;49.886;8.074;2022-09-04T12:34:07;3.03;;;2.07;;
10894;SDS011;5500;49.886;8.074;2022-09-04T12:42:59;3.90;;;1.67;;
10894;SDS011;5500;49.886;8.074;2022-09-04T12:45:42;3.35;;;1.63;;
10894;SDS011;5500;49.886;8.074;2022-09-04T12:48:16;3.30;;;1.30;;
10894;SDS011;5500;49.886;8.074;2022-09-04T12:50:50;1.75;;;1.40;;
10894;SDS011;5500;49.886;8.074;2022-09-04T12:56:25;3.20;;;1.98;;
10894;SDS011;5500;49.886;8.074;2022-09-04T12:59:03;1.88;;;1.73;;
10894;SDS011;5500;49.886;8.074;2022-09-04T13:01:47;2.15;;;1.90;;
10894;SDS011;5500;49.886;8.074;2022-09-04T13:04:25;2.10;;;1.30;;
10894;SDS011;5500;49.886;8.074;2022-09-04T13:07:01;1.50;;;1.20;;
10894;SDS011;5500;49.886;8.074;2022-09-04T13:09:43;1.88;;;1.73;;
10894;SDS011;5500;49.886;8.074;2022-09-04T13:12:20;1.38;;;1.27;;
10894;SDS011;5500;49.886;8.074;2022-09-04T13:14:59;1.52;;;1.35;;
10894;SDS011;5500;49.886;8.074;2022-09-04T13:17:35;1.55;;;1.30;;
10894;SDS011;5500;49.886;8.074;2022-09-04T13:20:12;1.38;;;1.27;;
10894;SDS011;5500;49.886;8.074;2022-09-04T13:22:52;2.78;;;1.50;;
10894;SDS011;5500;49.886;8.074;2022-09-04T13:25:27;2.28;;;1.60;;
10894;SDS011;5500;49.886;8.074;2022-09-04T13:28:04;1.95;;;1.55;;
10894;SDS011;5500;49.886;8.074;2022-09-04T13:30:43;1.98;;;1.50;;
10894;SDS011;5500;49.886;8.074;2022-09-04T13:33:16;2.85;;;1.67;;
10894;SDS011;5500;49.886;8.074;2022-09-04T13:36:10;1.85;;;1.75;;
10894;SDS011;5500;49.886;8.074;2022-09-04T13:39:04;1.77;;;1.40;;
10894;SDS011;5500;49.886;8.074;2022-09-04T13:41:51;1.83;;;1.67;;
10894;SDS011;5500;49.886;8.074;2022-09-04T13:44:43;1.95;;;1.75;;
10894;SDS011;5500;49.886;8.074;2022-09-04T13:47:28;1.40;;;1.30;;
10894;SDS011;5500;49.886;8.074;2022-09-04T13:50:00;1.60;;;1.48;;
10894;SDS011;5500;49.886;8.074;2022-09-04T13:52:35;1.85;;;1.40;;
10894;SDS011;5500;49.886;8.074;2022-09-04T13:55:06;2.75;;;1.52;;
10894;SDS011;5500;49.886;8.074;2022-09-04T13:57:38;3.75;;;1.88;;
10894;SDS011;5500;49.886;8.074;2022-09-04T14:00:09;3.67;;;1.67;;
10894;SDS011;5500;49.886;8.074;2022-09-04T14:02:38;1.70;;;1.60;;
10894;SDS011;5500;49.886;8.074;2022-09-04T14:05:08;1.80;;;1.70;;
10894;SDS011;5500;49.886;8.074;2022-09-04T14:07:40;3.22;;;1.67;;
10894;SDS011;5500;49.886;8.074;2022-09-04T14:10:11;2.22;;;1.63;;
10894;SDS011;5500;49.886;8.074;2022-09-04T14:12:45;4.13;;;1.55;;
10894;SDS011;5500;49.886;8.074;2022-09-04T14:15:24;2.20;;;1.85;;
10894;SDS011;5500;49.886;8.074;2022-09-04T14:18:00;1.80;;;1.70;;
10894;SDS011;5500;49.886;8.074;2022-09-04T14:20:48;1.60;;;1.50;;
10894;SDS011;5500;49.886;8.074;2022-09-04T14:23:31;1.80;;;1.70;;
10894;SDS011;5500;49.886;8.074;2022-09-04T14:26:07;2.42;;;1.70;;
10894;SDS011;5500;49.886;8.074;2022-09-04T14:28:42;1.60;;;1.50;;
10894;SDS011;5500;49.886;8.074;2022-09-04T14:31:14;3.25;;;1.60;;
10894;SDS011;5500;49.886;8.074;2022-09-04T14:33:49;1.67;;;1.58;;
10894;SDS011;5500;49.886;8.074;2022-09-04T14:36:25;4.53;;;1.92;;
10894;SDS011;5500;49.886;8.074;2022-09-04T14:39:12;3.75;;;1.77;;
10894;SDS011;5500;49.886;8.074;2022-09-04T14:41:47;2.00;;;1.77;;
10894;SDS011;5500;49.886;8.074;2022-09-04T14:44:23;1.85;;;1.58;;
10894;SDS011;5500;49.886;8.074;2022-09-04T14:47:02;2.55;;;1.83;;
10894;SDS011;5500;49.886;8.074;2022-09-04T14:49:38;2.30;;;2.00;;
10894;SDS011;5500;49.886;8.074;2022-09-04T14:52:13;1.83;;;1.63;;
10894;SDS011;5500;49.886;8.074;2022-09-04T14:54:45;4.03;;;1.77;;
10894;SDS011;5500;49.886;8.074;2022-09-04T14:57:14;3.22;;;1.67;;
10894;SDS011;5500;49.886;8.074;2022-09-04T14:59:45;5.95;;;2.00;;
10894;SDS011;5500;49.886;8.074;2022-09-04T15:02:17;3.00;;;1.50;;
10894;SDS011;5500;49.886;8.074;2022-09-04T15:04:50;2.47;;;1.63;;
10894;SDS011;5500;49.886;8.074;2022-09-04T15:07:24;3.28;;;1.63;;
10894;SDS011;5500;49.886;8.074;2022-09-04T15:10:18;4.20;;;1.65;;
10894;SDS011;5500;49.886;8.074;2022-09-04T15:12:51;2.55;;;1.90;;
10894;SDS011;5500;49.886;8.074;2022-09-04T15:15:23;1.80;;;1.70;;
10894;SDS011;5500;49.886;8.074;2022-09-04T15:17:57;3.58;;;1.50;;
10894;SDS011;5500;49.886;8.074;2022-09-04T15:20:35;2.65;;;1.90;;
10894;SDS011;5500;49.886;8.074;2022-09-04T15:23:06;1.75;;;1.63;;
10894;SDS011;5500;49.886;8.074;2022-09-04T15:25:48;3.33;;;1.58;;
10894;SDS011;5500;49.886;8.074;2022-09-04T15:28:26;3.17;;;1.90;;
10894;SDS011;5500;49.886;8.074;2022-09-04T15:31:03;1.92;;;1.67;;
10894;SDS011;5500;49.886;8.074;2022-09-04T15:33:41;2.58;;;1.67;;
10894;SDS011;5500;49.886;8.074;2022-09-04T15:36:13;1.73;;;1.63;;
10894;SDS011;5500;49.886;8.074;2022-09-04T15:38:46;4.30;;;1.80;;
10894;SDS011;5500;49.886;8.074;2022-09-04T15:41:20;2.13;;;1.92;;
10894;SDS011;5500;49.886;8.074;2022-09-04T15:43:51;2.90;;;1.65;;
10894;SDS011;5500;49.886;8.074;2022-09-04T15:46:23;5.47;;;1.63;;
10894;SDS011;5500;49.886;8.074;2022-09-04T15:48:56;2.38;;;1.70;;
10894;SDS011;5500;49.886;8.074;2022-09-04T15:51:35;2.17;;;1.67;;
10894;SDS011;5500;49.886;8.074;2022-09-04T15:54:11;1.77;;;1.67;;
10894;SDS011;5500;49.886;8.074;2022-09-04T15:56:45;2.35;;;1.83;;
10894;SDS011;5500;49.886;8.074;2022-09-04T15:59:21;3.45;;;1.73;;
10894;SDS011;5500;49.886;8.074;2022-09-04T16:01:54;1.60;;;1.50;;
10894;SDS011;5500;49.886;8.074;2022-09-04T16:04:28;3.20;;;1.55;;
10894;SDS011;5500;49.886;8.074;2022-09-04T16:07:13;2.50;;;1.70;;
10894;SDS011;5500;49.886;8.074;2022-09-04T16:10:00;1.60;;;1.50;;
10894;SDS011;5500;49.886;8.074;2022-09-04T16:12:33;1.83;;;1.63;;
10894;SDS011;5500;49.886;8.074;2022-09-04T16:15:03;2.33;;;1.67;;
10894;SDS011;5500;49.886;8.074;2022-09-04T16:17:37;3.90;;;1.90;;
10894;SDS011;5500;49.886;8.074;2022-09-04T16:20:10;3.00;;;1.80;;
10894;SDS011;5500;49.886;8.074;2022-09-04T16:22:44;1.55;;;1.45;;
10894;SDS011;5500;49.886;8.074;2022-09-04T16:25:19;2.55;;;1.73;;
10894;SDS011;5500;49.886;8.074;2022-09-04T16:27:55;1.92;;;1.80;;
10894;SDS011;5500;49.886;8.074;2022-09-04T16:30:27;2.05;;;1.63;;
10894;SDS011;5500;49.886;8.074;2022-09-04T16:32:58;5.05;;;1.58;;
10894;SDS011;5500;49.886;8.074;2022-09-04T16:35:26;1.63;;;1.52;;
10894;SDS011;5500;49.886;8.074;2022-09-04T16:38:03;1.77;;;1.60;;
10894;SDS011;5500;49.886;8.074;2022-09-04T16:40:34;1.77;;;1.60;;
10894;SDS011;5500;49.886;8.074;2022-09-04T16:43:09;1.60;;;1.45;;
10894;SDS011;5500;49.886;8.074;2022-09-04T16:45:45;1.50;;;1.40;;
10894;SDS011;5500;49.886;8.074;2022-09-04T16:48:15;2.47;;;1.73;;
10894;SDS011;5500;49.886;8.074;2022-09-04T16:51:01;1.85;;;1.70;;
10894;SDS011;5500;49.886;8.074;2022-09-04T16:53:52;2.20;;;2.00;;
10894;SDS011;5500;49.886;8.074;2022-09-04T16:56:31;6.28;;;1.73;;
10894;SDS011;5500;49.886;8.074;2022-09-04T16:59:09;2.65;;;1.58;;
10894;SDS011;5500;49.886;8.074;2022-09-04T17:01:46;2.47;;;1.80;;
10894;SDS011;5500;49.886;8.074;2022-09-04T17:04:25;1.95;;;1.80;;
10894;SDS011;5500;49.886;8.074;2022-09-04T17:06:59;1.60;;;1.50;;
10894;SDS011;5500;49.886;8.074;2022-09-04T17:09:32;2.65;;;1.67;;
10894;SDS011;5500;49.886;8.074;2022-09-04T17:12:16;2.03;;;1.92;;
10894;SDS011;5500;49.886;8.074;2022-09-04T17:14:53;3.13;;;1.65;;
10894;SDS011;5500;49.886;8.074;2022-09-04T17:17:24;1.80;;;1.63;;
10894;SDS011;5500;49.886;8.074;2022-09-04T17:20:01;1.63;;;1.52;;
10894;SDS011;5500;49.886;8.074;2022-09-04T17:22:37;2.00;;;1.90;;
10894;SDS011;5500;49.886;8.074;2022-09-04T17:25:29;2.60;;;1.88;;
10894;SDS011;5500;49.886;8.074;2022-09-04T17:28:24;2.00;;;1.73;;
10894;SDS011;5500;49.886;8.074;2022-09-04T17:31:32;1.58;;;1.48;;